createdAt,value
2018-08-08T00:00:11.484Z,0.00
2018-08-08T00:01:11.663Z,0.00
2018-08-08T00:02:11.846Z,0.00
2018-08-08T00:03:12.033Z,0.00
2018-08-08T00:04:12.208Z,0.00
2018-08-08T00:05:12.393Z,0.00
2018-08-08T00:06:12.574Z,0.00
2018-08-08T00:07:12.750Z,0.00
2018-08-08T00:08:12.924Z,0.00
2018-08-08T00:09:13.110Z,0.00
2018-08-08T00:10:13.287Z,0.00
2018-08-08T00:11:13.473Z,0.00
2018-08-08T00:12:13.652Z,0.00
2018-08-08T00:13:13.833Z,0.00
2018-08-08T00:14:14.016Z,0.00
2018-08-08T00:15:14.201Z,0.00
2018-08-08T00:16:14.378Z,0.00
2018-08-08T00:17:14.579Z,0.00
2018-08-08T00:18:14.754Z,0.00
2018-08-08T00:19:14.931Z,0.00
2018-08-08T00:20:15.107Z,0.00
2018-08-08T00:21:15.280Z,0.00
2018-08-08T00:22:16.300Z,0.00
2018-08-08T00:23:15.691Z,0.00
2018-08-08T00:24:15.858Z,0.00
2018-08-08T00:25:16.034Z,0.00
2018-08-08T00:26:16.209Z,0.00
2018-08-08T00:27:16.389Z,0.00
2018-08-08T00:28:16.577Z,0.00
2018-08-08T00:29:16.758Z,0.00
2018-08-08T00:30:16.937Z,0.00
2018-08-08T00:31:17.115Z,0.00
2018-08-08T00:32:17.298Z,0.00
2018-08-08T00:33:17.474Z,0.00
2018-08-08T00:34:17.650Z,0.00
2018-08-08T00:35:17.832Z,0.00
2018-08-08T00:36:18.011Z,0.00
2018-08-08T00:37:18.200Z,0.00
2018-08-08T00:38:18.379Z,0.00
2018-08-08T00:39:18.614Z,0.00
2018-08-08T00:40:18.771Z,0.00
2018-08-08T00:41:18.955Z,0.00
2018-08-08T00:42:19.126Z,0.00
2018-08-08T00:43:19.303Z,0.00
2018-08-08T00:44:19.483Z,0.00
2018-08-08T00:45:19.667Z,0.00
2018-08-08T00:46:19.849Z,0.00
2018-08-08T00:47:20.023Z,0.00
2018-08-08T00:48:20.209Z,0.00
2018-08-08T00:49:20.385Z,0.00
2018-08-08T00:50:20.575Z,0.00
2018-08-08T00:51:20.746Z,0.00
2018-08-08T00:52:20.929Z,0.00
2018-08-08T00:53:21.117Z,0.00
2018-08-08T00:54:21.294Z,0.00
2018-08-08T00:55:21.469Z,0.00
2018-08-08T00:56:21.644Z,0.00
2018-08-08T00:57:21.821Z,0.00
2018-08-08T00:58:21.998Z,0.00
2018-08-08T00:59:22.174Z,0.00
2018-08-08T01:00:22.361Z,0.00
2018-08-08T01:01:22.534Z,0.00
2018-08-08T01:02:22.707Z,0.00
2018-08-08T01:03:22.882Z,0.00
2018-08-08T01:04:23.057Z,0.00
2018-08-08T01:05:23.234Z,0.00
2018-08-08T01:06:23.416Z,0.00
2018-08-08T01:07:23.591Z,0.00
2018-08-08T01:08:23.869Z,0.00
2018-08-08T01:09:23.943Z,0.00
2018-08-08T01:10:24.122Z,0.00
2018-08-08T01:11:24.303Z,0.00
2018-08-08T01:12:24.510Z,0.00
2018-08-08T01:13:24.665Z,0.00
2018-08-08T01:14:24.848Z,0.00
2018-08-08T01:15:25.023Z,0.00
2018-08-08T01:16:25.195Z,0.00
2018-08-08T01:17:25.379Z,0.00
2018-08-08T01:18:25.555Z,0.00
2018-08-08T01:19:25.742Z,0.00
2018-08-08T01:20:25.918Z,0.00
2018-08-08T01:21:26.086Z,0.00
2018-08-08T01:22:26.265Z,0.00
2018-08-08T01:23:26.432Z,0.00
2018-08-08T01:24:26.615Z,0.00
2018-08-08T01:25:26.800Z,0.00
2018-08-08T01:26:26.977Z,0.00
2018-08-08T01:27:27.159Z,0.00
2018-08-08T01:28:27.329Z,0.00
2018-08-08T01:29:27.515Z,0.00
2018-08-08T01:30:27.692Z,0.00
2018-08-08T01:31:27.875Z,0.00
2018-08-08T01:32:28.044Z,0.00
2018-08-08T01:33:28.221Z,0.00
2018-08-08T01:34:28.402Z,0.00
2018-08-08T01:35:28.576Z,0.00
2018-08-08T01:36:28.753Z,0.00
2018-08-08T01:37:28.928Z,0.00
2018-08-08T01:38:29.108Z,0.00
2018-08-08T01:39:31.187Z,0.00
2018-08-08T01:40:31.664Z,0.00
2018-08-08T01:41:29.603Z,0.00
2018-08-08T01:42:29.780Z,0.00
2018-08-08T01:43:29.962Z,0.00
2018-08-08T01:44:30.140Z,0.00
2018-08-08T01:45:30.395Z,0.00
2018-08-08T01:46:30.495Z,0.00
2018-08-08T01:47:30.681Z,0.00
2018-08-08T01:48:30.861Z,0.00
2018-08-08T01:49:31.037Z,0.00
2018-08-08T01:50:31.218Z,0.00
2018-08-08T01:51:31.395Z,0.00
2018-08-08T01:52:31.570Z,0.00
2018-08-08T01:53:31.750Z,0.00
2018-08-08T01:54:31.926Z,0.00
2018-08-08T01:55:32.110Z,0.00
2018-08-08T01:56:32.284Z,0.00
2018-08-08T01:57:32.460Z,0.00
2018-08-08T01:58:32.639Z,0.00
2018-08-08T01:59:32.806Z,0.00
2018-08-08T02:00:32.989Z,0.00
2018-08-08T02:01:33.171Z,0.00
2018-08-08T02:02:33.342Z,0.00
2018-08-08T02:03:33.522Z,0.00
2018-08-08T02:04:33.695Z,0.00
2018-08-08T02:05:33.870Z,0.00
2018-08-08T02:06:34.043Z,0.00
2018-08-08T02:07:34.222Z,0.00
2018-08-08T02:08:34.401Z,0.00
2018-08-08T02:09:34.577Z,0.00
2018-08-08T02:10:34.759Z,0.00
2018-08-08T02:11:34.947Z,0.00
2018-08-08T02:12:35.121Z,0.00
2018-08-08T02:13:35.303Z,0.00
2018-08-08T02:14:35.486Z,0.00
2018-08-08T02:15:35.670Z,0.00
2018-08-08T02:16:35.848Z,0.00
2018-08-08T02:17:36.029Z,0.00
2018-08-08T02:18:36.213Z,0.00
2018-08-08T02:19:36.388Z,0.00
2018-08-08T02:20:36.563Z,0.00
2018-08-08T02:21:36.738Z,0.00
2018-08-08T02:22:36.919Z,0.00
2018-08-08T02:23:37.100Z,0.00
2018-08-08T02:24:37.270Z,0.00
2018-08-08T02:25:37.449Z,0.00
2018-08-08T02:26:37.630Z,0.00
2018-08-08T02:27:37.800Z,0.00
2018-08-08T02:28:37.975Z,0.00
2018-08-08T02:29:38.148Z,0.00
2018-08-08T02:30:38.331Z,0.00
2018-08-08T02:31:38.503Z,0.00
2018-08-08T02:32:38.681Z,0.00
2018-08-08T02:33:38.865Z,0.00
2018-08-08T02:34:39.045Z,0.00
2018-08-08T02:35:39.245Z,0.00
2018-08-08T02:36:39.424Z,0.00
2018-08-08T02:37:39.629Z,0.00
2018-08-08T02:38:39.765Z,0.00
2018-08-08T02:39:39.948Z,0.00
2018-08-08T02:40:40.129Z,0.00
2018-08-08T02:41:40.310Z,0.00
2018-08-08T02:42:40.498Z,0.00
2018-08-08T02:43:40.680Z,0.00
2018-08-08T02:44:40.861Z,0.00
2018-08-08T02:45:41.036Z,0.00
2018-08-08T02:46:41.208Z,0.00
2018-08-08T02:47:41.388Z,0.00
2018-08-08T02:48:41.565Z,0.00
2018-08-08T02:49:41.740Z,0.00
2018-08-08T02:50:41.916Z,0.00
2018-08-08T02:51:42.098Z,0.00
2018-08-08T02:52:42.269Z,0.00
2018-08-08T02:53:42.452Z,0.00
2018-08-08T02:54:42.666Z,0.00
2018-08-08T02:55:42.807Z,0.00
2018-08-08T02:56:42.984Z,0.00
2018-08-08T02:57:43.164Z,0.00
2018-08-08T02:58:43.339Z,0.00
2018-08-08T02:59:43.517Z,0.00
2018-08-08T03:00:43.691Z,0.00
2018-08-08T03:01:43.874Z,0.00
2018-08-08T03:02:44.049Z,0.00
2018-08-08T03:03:44.227Z,0.00
2018-08-08T03:04:44.399Z,0.00
2018-08-08T03:05:44.577Z,0.00
2018-08-08T03:06:44.750Z,0.00
2018-08-08T03:07:44.925Z,0.00
2018-08-08T03:08:45.121Z,0.00
2018-08-08T03:09:45.911Z,0.00
2018-08-08T03:10:48.052Z,0.00
2018-08-08T03:11:45.954Z,0.00
2018-08-08T03:12:45.762Z,0.00
2018-08-08T03:13:45.936Z,0.00
2018-08-08T03:14:46.110Z,0.00
2018-08-08T03:15:46.288Z,0.00
2018-08-08T03:16:46.458Z,0.00
2018-08-08T03:17:46.641Z,0.00
2018-08-08T03:18:46.822Z,0.00
2018-08-08T03:19:47.008Z,0.00
2018-08-08T03:20:47.187Z,0.00
2018-08-08T03:21:47.362Z,0.00
2018-08-08T03:22:47.537Z,0.00
2018-08-08T03:23:47.718Z,0.00
2018-08-08T03:24:47.898Z,0.00
2018-08-08T03:25:48.084Z,0.00
2018-08-08T03:26:48.255Z,0.00
2018-08-08T03:27:48.435Z,0.00
2018-08-08T03:28:48.610Z,0.00
2018-08-08T03:29:48.793Z,0.00
2018-08-08T03:30:48.961Z,0.00
2018-08-08T03:31:49.152Z,0.00
2018-08-08T03:32:49.333Z,0.00
2018-08-08T03:33:49.502Z,0.00
2018-08-08T03:34:49.681Z,0.00
2018-08-08T03:35:51.807Z,0.00
2018-08-08T03:36:53.240Z,0.00
2018-08-08T03:37:53.401Z,0.00
2018-08-08T03:38:50.612Z,0.00
2018-08-08T03:39:50.540Z,0.00
2018-08-08T03:40:50.714Z,0.00
2018-08-08T03:41:50.898Z,0.00
2018-08-08T03:42:51.081Z,0.00
2018-08-08T03:43:51.258Z,0.00
2018-08-08T03:44:51.435Z,0.00
2018-08-08T03:45:51.614Z,0.00
2018-08-08T03:46:51.788Z,0.00
2018-08-08T03:47:51.963Z,0.00
2018-08-08T03:48:52.144Z,0.00
2018-08-08T03:49:52.321Z,0.00
2018-08-08T03:50:52.496Z,0.00
2018-08-08T03:51:52.677Z,0.00
2018-08-08T03:52:52.848Z,0.00
2018-08-08T03:53:53.029Z,0.00
2018-08-08T03:54:53.212Z,0.00
2018-08-08T03:55:53.395Z,0.00
2018-08-08T03:56:53.583Z,0.00
2018-08-08T03:57:53.784Z,0.00
2018-08-08T03:58:53.975Z,0.00
2018-08-08T03:59:54.140Z,0.00
2018-08-08T04:00:54.337Z,0.00
2018-08-08T04:01:54.522Z,0.00
2018-08-08T04:02:54.717Z,0.00
2018-08-08T04:03:54.978Z,5.63
2018-08-08T04:04:55.050Z,5.63
2018-08-08T04:05:55.233Z,5.63
2018-08-08T04:06:55.405Z,5.63
2018-08-08T04:07:55.577Z,5.63
2018-08-08T04:08:55.767Z,5.63
2018-08-08T04:09:55.946Z,5.63
2018-08-08T04:10:56.139Z,5.63
2018-08-08T04:11:56.308Z,5.63
2018-08-08T04:12:56.500Z,5.63
2018-08-08T04:13:56.676Z,11.25
2018-08-08T04:14:56.854Z,11.25
2018-08-08T04:15:57.036Z,11.25
2018-08-08T04:16:57.218Z,11.25
2018-08-08T04:17:57.442Z,11.25
2018-08-08T04:18:57.659Z,11.25
2018-08-08T04:19:57.728Z,11.25
2018-08-08T04:20:57.913Z,11.25
2018-08-08T04:21:58.126Z,11.25
2018-08-08T04:22:58.326Z,11.25
2018-08-08T04:23:58.523Z,11.25
2018-08-08T04:24:58.964Z,11.25
2018-08-08T04:25:58.824Z,11.25
2018-08-08T04:26:59.002Z,11.25
2018-08-08T04:27:59.201Z,11.25
2018-08-08T04:28:59.421Z,11.25
2018-08-08T04:29:59.600Z,11.25
2018-08-08T04:30:59.813Z,11.25
2018-08-08T04:32:00.059Z,11.25
2018-08-08T04:33:00.085Z,11.25
2018-08-08T04:34:00.407Z,11.25
2018-08-08T04:35:00.449Z,11.25
2018-08-08T04:36:00.650Z,16.88
2018-08-08T04:37:00.817Z,16.88
2018-08-08T04:38:00.990Z,16.88
2018-08-08T04:39:01.168Z,16.88
2018-08-08T04:40:01.359Z,16.88
2018-08-08T04:41:01.550Z,16.88
2018-08-08T04:42:01.971Z,16.88
2018-08-08T04:43:01.860Z,16.88
2018-08-08T04:44:02.042Z,16.88
2018-08-08T04:45:02.285Z,16.88
2018-08-08T04:46:02.372Z,16.88
2018-08-08T04:47:02.559Z,16.88
2018-08-08T04:48:02.734Z,16.88
2018-08-08T04:49:02.918Z,16.88
2018-08-08T04:50:03.096Z,16.88
2018-08-08T04:51:03.319Z,16.88
2018-08-08T04:52:03.508Z,22.50
2018-08-08T04:53:03.724Z,22.50
2018-08-08T04:54:03.908Z,22.50
2018-08-08T04:55:04.080Z,22.50
2018-08-08T04:56:04.266Z,22.50
2018-08-08T04:57:04.458Z,22.50
2018-08-08T04:58:04.983Z,22.50
2018-08-08T04:59:04.984Z,22.50
2018-08-08T05:00:04.972Z,22.50
2018-08-08T05:01:05.435Z,22.50
2018-08-08T05:02:05.574Z,22.50
2018-08-08T05:03:05.889Z,22.50
2018-08-08T05:04:06.037Z,22.50
2018-08-08T05:05:05.973Z,22.50
2018-08-08T05:06:06.057Z,22.50
2018-08-08T05:07:06.126Z,22.50
2018-08-08T05:08:06.395Z,22.50
2018-08-08T05:09:06.766Z,22.50
2018-08-08T05:10:06.897Z,22.50
2018-08-08T05:11:06.687Z,22.50
2018-08-08T05:12:06.909Z,22.50
2018-08-08T05:13:07.232Z,22.50
2018-08-08T05:14:07.419Z,22.50
2018-08-08T05:15:07.312Z,22.50
2018-08-08T05:16:07.454Z,22.50
2018-08-08T05:17:07.638Z,22.50
2018-08-08T05:18:07.840Z,22.50
2018-08-08T05:19:08.011Z,22.50
2018-08-08T05:20:08.300Z,22.50
2018-08-08T05:21:08.386Z,28.13
2018-08-08T05:22:08.564Z,28.13
2018-08-08T05:23:08.749Z,28.13
2018-08-08T05:24:08.932Z,28.13
2018-08-08T05:25:09.120Z,28.13
2018-08-08T05:26:09.305Z,28.13
2018-08-08T05:27:09.488Z,28.13
2018-08-08T05:28:09.671Z,28.13
2018-08-08T05:29:09.854Z,22.50
2018-08-08T05:30:10.036Z,22.50
2018-08-08T05:31:10.211Z,16.88
2018-08-08T05:32:10.499Z,16.88
2018-08-08T05:33:10.636Z,16.88
2018-08-08T05:34:10.706Z,16.88
2018-08-08T05:35:10.880Z,16.88
2018-08-08T05:36:11.098Z,16.88
2018-08-08T05:37:11.285Z,11.25
2018-08-08T05:38:11.451Z,11.25
2018-08-08T05:39:11.874Z,11.25
2018-08-08T05:40:12.131Z,11.25
2018-08-08T05:41:12.344Z,11.25
2018-08-08T05:42:12.410Z,11.25
2018-08-08T05:43:12.637Z,11.25
2018-08-08T05:44:12.833Z,11.25
2018-08-08T05:45:13.009Z,11.25
2018-08-08T05:46:13.083Z,11.25
2018-08-08T05:47:13.300Z,11.25
2018-08-08T05:48:13.431Z,11.25
2018-08-08T05:49:13.796Z,11.25
2018-08-08T05:50:13.712Z,11.25
2018-08-08T05:51:13.770Z,16.88
2018-08-08T05:52:13.961Z,16.88
2018-08-08T05:53:14.141Z,22.50
2018-08-08T05:54:14.332Z,22.50
2018-08-08T05:55:14.513Z,22.50
2018-08-08T05:56:14.688Z,28.13
2018-08-08T05:57:14.875Z,28.13
2018-08-08T05:58:15.066Z,28.13
2018-08-08T05:59:15.239Z,33.75
2018-08-08T06:00:15.424Z,33.75
2018-08-08T06:01:15.600Z,39.38
2018-08-08T06:02:15.816Z,45.00
2018-08-08T06:03:16.010Z,45.00
2018-08-08T06:04:16.191Z,50.63
2018-08-08T06:05:16.370Z,50.63
2018-08-08T06:06:16.549Z,50.63
2018-08-08T06:07:16.774Z,56.25
2018-08-08T06:08:17.044Z,56.25
2018-08-08T06:09:17.136Z,56.25
2018-08-08T06:10:17.309Z,61.88
2018-08-08T06:11:17.492Z,61.88
2018-08-08T06:12:18.082Z,67.50
2018-08-08T06:13:17.984Z,73.13
2018-08-08T06:14:18.052Z,73.13
2018-08-08T06:15:18.245Z,78.75
2018-08-08T06:16:18.305Z,84.38
2018-08-08T06:17:18.488Z,84.38
2018-08-08T06:18:18.681Z,84.38
2018-08-08T06:19:18.860Z,84.38
2018-08-08T06:20:19.044Z,84.38
2018-08-08T06:21:19.218Z,90.00
2018-08-08T06:22:19.410Z,90.00
2018-08-08T06:23:19.591Z,95.63
2018-08-08T06:24:19.819Z,112.50
2018-08-08T06:25:19.920Z,112.50
2018-08-08T06:26:20.089Z,106.88
2018-08-08T06:27:20.312Z,101.25
2018-08-08T06:28:20.467Z,95.63
2018-08-08T06:29:20.656Z,90.00
2018-08-08T06:30:20.839Z,101.25
2018-08-08T06:31:21.824Z,95.63
2018-08-08T06:32:21.158Z,95.63
2018-08-08T06:33:21.351Z,95.63
2018-08-08T06:34:21.546Z,101.25
2018-08-08T06:35:21.727Z,101.25
2018-08-08T06:36:21.908Z,101.25
2018-08-08T06:37:22.097Z,101.25
2018-08-08T06:38:22.315Z,101.25
2018-08-08T06:39:22.493Z,106.88
2018-08-08T06:40:22.680Z,106.88
2018-08-08T06:41:22.889Z,112.50
2018-08-08T06:42:23.066Z,112.50
2018-08-08T06:43:23.255Z,118.13
2018-08-08T06:44:23.467Z,118.13
2018-08-08T06:45:23.659Z,123.75
2018-08-08T06:46:23.898Z,129.38
2018-08-08T06:47:23.990Z,135.00
2018-08-08T06:48:24.198Z,140.63
2018-08-08T06:49:24.465Z,146.25
2018-08-08T06:50:24.531Z,151.88
2018-08-08T06:51:24.614Z,157.50
2018-08-08T06:52:24.820Z,163.13
2018-08-08T06:53:25.028Z,168.75
2018-08-08T06:54:25.280Z,180.00
2018-08-08T06:55:25.362Z,185.63
2018-08-08T06:56:25.521Z,191.25
2018-08-08T06:57:25.706Z,202.50
2018-08-08T06:58:25.895Z,202.50
2018-08-08T06:59:26.399Z,202.50
2018-08-08T07:00:26.279Z,202.50
2018-08-08T07:01:26.504Z,202.50
2018-08-08T07:02:26.725Z,196.88
2018-08-08T07:03:26.815Z,196.88
2018-08-08T07:04:28.460Z,196.88
2018-08-08T07:05:27.240Z,196.88
2018-08-08T07:06:27.303Z,196.88
2018-08-08T07:07:27.621Z,196.88
2018-08-08T07:08:27.699Z,202.50
2018-08-08T07:09:27.935Z,208.13
2018-08-08T07:10:28.092Z,213.75
2018-08-08T07:11:28.151Z,225.00
2018-08-08T07:12:28.925Z,230.63
2018-08-08T07:13:28.583Z,230.63
2018-08-08T07:14:28.784Z,230.63
2018-08-08T07:15:29.018Z,230.63
2018-08-08T07:16:29.206Z,225.00
2018-08-08T07:17:29.442Z,219.38
2018-08-08T07:18:29.630Z,213.75
2018-08-08T07:19:29.854Z,208.13
2018-08-08T07:20:30.166Z,196.88
2018-08-08T07:21:30.242Z,180.00
2018-08-08T07:22:30.421Z,163.13
2018-08-08T07:23:30.858Z,151.88
2018-08-08T07:24:30.884Z,140.63
2018-08-08T07:25:30.965Z,135.00
2018-08-08T07:26:31.134Z,135.00
2018-08-08T07:27:33.380Z,140.63
2018-08-08T07:28:31.548Z,146.25
2018-08-08T07:29:31.742Z,151.88
2018-08-08T07:30:31.980Z,157.50
2018-08-08T07:31:32.476Z,163.13
2018-08-08T07:32:32.322Z,168.75
2018-08-08T07:33:32.516Z,180.00
2018-08-08T07:34:32.712Z,180.00
2018-08-08T07:35:33.155Z,196.88
2018-08-08T07:36:33.930Z,208.13
2018-08-08T07:37:33.252Z,219.38
2018-08-08T07:38:33.476Z,230.63
2018-08-08T07:39:33.674Z,241.88
2018-08-08T07:40:33.965Z,247.50
2018-08-08T07:41:34.083Z,258.75
2018-08-08T07:42:34.275Z,264.38
2018-08-08T07:43:34.472Z,275.63
2018-08-08T07:44:34.681Z,281.25
2018-08-08T07:45:34.880Z,264.38
2018-08-08T07:46:35.094Z,258.75
2018-08-08T07:47:35.277Z,258.75
2018-08-08T07:48:35.464Z,264.38
2018-08-08T07:49:35.668Z,253.13
2018-08-08T07:50:35.918Z,258.75
2018-08-08T07:51:35.988Z,331.88
2018-08-08T07:52:36.191Z,365.63
2018-08-08T07:53:36.383Z,483.75
2018-08-08T07:54:36.606Z,691.88
2018-08-08T07:55:36.792Z,821.25
2018-08-08T07:56:37.033Z,720.00
2018-08-08T07:57:37.161Z,978.75
2018-08-08T07:58:37.355Z,1226.25
2018-08-08T07:59:38.014Z,1428.75
2018-08-08T08:00:37.702Z,1659.38
2018-08-08T08:01:37.901Z,1642.50
2018-08-08T08:02:38.303Z,1738.13
2018-08-08T08:03:38.277Z,1777.50
2018-08-08T08:04:38.477Z,1777.50
2018-08-08T08:05:38.775Z,1788.75
2018-08-08T08:06:38.838Z,1833.75
2018-08-08T08:07:39.020Z,1839.38
2018-08-08T08:08:39.220Z,1828.13
2018-08-08T08:09:39.403Z,1850.63
2018-08-08T08:10:39.594Z,1845.00
2018-08-08T08:11:39.789Z,1833.75
2018-08-08T08:12:39.995Z,1687.50
2018-08-08T08:13:40.163Z,714.38
2018-08-08T08:14:40.354Z,714.38
2018-08-08T08:15:40.533Z,556.88
2018-08-08T08:16:40.750Z,798.75
2018-08-08T08:17:40.908Z,1411.88
2018-08-08T08:18:41.095Z,1479.38
2018-08-08T08:19:41.282Z,1535.63
2018-08-08T08:20:41.468Z,1423.13
2018-08-08T08:21:41.688Z,1417.50
2018-08-08T08:22:41.890Z,1518.75
2018-08-08T08:23:42.086Z,1586.25
2018-08-08T08:24:42.274Z,1665.00
2018-08-08T08:25:42.483Z,1636.88
2018-08-08T08:26:42.667Z,1580.63
2018-08-08T08:27:42.982Z,1546.88
2018-08-08T08:28:43.457Z,1485.00
2018-08-08T08:29:43.176Z,1153.13
2018-08-08T08:30:43.322Z,973.13
2018-08-08T08:31:43.509Z,1445.63
2018-08-08T08:32:43.709Z,1428.75
2018-08-08T08:33:43.891Z,1406.25
2018-08-08T08:34:44.983Z,1366.88
2018-08-08T08:35:44.383Z,1333.13
2018-08-08T08:36:44.495Z,1327.50
2018-08-08T08:37:45.099Z,1293.75
2018-08-08T08:38:44.768Z,1265.63
2018-08-08T08:39:44.963Z,1231.88
2018-08-08T08:40:45.162Z,1215.00
2018-08-08T08:41:45.343Z,1198.13
2018-08-08T08:42:45.526Z,1175.63
2018-08-08T08:43:45.756Z,1170.00
2018-08-08T08:44:45.908Z,1147.50
2018-08-08T08:45:46.097Z,1130.63
2018-08-08T08:46:46.288Z,1130.63
2018-08-08T08:47:46.543Z,1119.38
2018-08-08T08:48:46.677Z,1102.50
2018-08-08T08:49:46.864Z,1091.25
2018-08-08T08:50:47.051Z,1096.88
2018-08-08T08:51:47.240Z,1113.75
2018-08-08T08:52:47.429Z,1158.75
2018-08-08T08:53:47.612Z,1198.13
2018-08-08T08:54:47.799Z,1209.38
2018-08-08T08:55:47.994Z,1220.63
2018-08-08T08:56:48.296Z,1209.38
2018-08-08T08:57:48.319Z,1203.75
2018-08-08T08:58:48.590Z,1203.75
2018-08-08T08:59:48.703Z,1215.00
2018-08-08T09:00:48.900Z,1226.25
2018-08-08T09:01:49.121Z,1237.50
2018-08-08T09:02:49.288Z,1265.63
2018-08-08T09:03:49.476Z,1299.38
2018-08-08T09:04:49.676Z,1350.00
2018-08-08T09:05:49.866Z,1428.75
2018-08-08T09:06:50.065Z,1614.38
2018-08-08T09:07:50.253Z,1901.25
2018-08-08T09:08:50.442Z,2778.75
2018-08-08T09:09:50.639Z,5506.88
2018-08-08T09:10:50.828Z,6041.25
2018-08-08T09:11:51.017Z,4573.13
2018-08-08T09:12:51.207Z,4066.88
2018-08-08T09:13:51.389Z,3881.25
2018-08-08T09:14:51.607Z,3740.63
2018-08-08T09:15:51.774Z,3588.75
2018-08-08T09:16:52.034Z,3594.38
2018-08-08T09:17:52.112Z,3577.50
2018-08-08T09:18:52.497Z,3543.75
2018-08-08T09:19:52.433Z,3622.50
2018-08-08T09:20:52.616Z,3684.38
2018-08-08T09:21:52.819Z,3796.88
2018-08-08T09:22:53.012Z,3785.63
2018-08-08T09:23:53.219Z,4038.75
2018-08-08T09:24:53.412Z,4145.63
2018-08-08T09:25:53.622Z,4089.38
2018-08-08T09:26:53.812Z,4235.63
2018-08-08T09:27:54.046Z,4252.50
2018-08-08T09:28:54.198Z,3976.88
2018-08-08T09:29:54.391Z,3307.50
2018-08-08T09:30:54.590Z,2446.88
2018-08-08T09:31:54.775Z,1833.75
2018-08-08T09:32:54.988Z,1631.25
2018-08-08T09:33:55.153Z,1535.63
2018-08-08T09:34:55.349Z,1524.38
2018-08-08T09:35:55.533Z,1479.38
2018-08-08T09:36:55.737Z,1389.38
2018-08-08T09:37:55.959Z,1378.13
2018-08-08T09:38:56.132Z,1355.63
2018-08-08T09:39:56.334Z,1327.50
2018-08-08T09:40:57.744Z,1254.38
2018-08-08T09:41:56.674Z,1299.38
2018-08-08T09:42:56.864Z,1260.00
2018-08-08T09:43:57.054Z,1186.88
2018-08-08T09:44:58.170Z,1215.00
2018-08-08T09:45:58.434Z,1248.75
2018-08-08T09:46:58.424Z,1248.75
2018-08-08T09:47:58.104Z,1333.13
2018-08-08T09:48:58.128Z,1237.50
2018-08-08T09:49:58.373Z,1237.50
2018-08-08T09:50:58.346Z,1147.50
2018-08-08T09:51:58.564Z,1136.25
2018-08-08T09:52:58.747Z,1035.00
2018-08-08T09:53:58.958Z,1051.88
2018-08-08T09:54:59.140Z,1057.50
2018-08-08T09:55:59.324Z,1029.38
2018-08-08T09:56:59.510Z,1018.13
2018-08-08T09:57:59.701Z,995.63
2018-08-08T09:58:59.890Z,978.75
2018-08-08T10:00:00.128Z,973.13
2018-08-08T10:01:00.316Z,950.63
2018-08-08T10:02:00.507Z,911.25
2018-08-08T10:03:00.704Z,945.00
2018-08-08T10:04:00.900Z,905.63
2018-08-08T10:05:01.083Z,911.25
2018-08-08T10:06:01.276Z,945.00
2018-08-08T10:07:01.467Z,990.00
2018-08-08T10:08:01.745Z,984.38
2018-08-08T10:09:01.780Z,984.38
2018-08-08T10:10:01.964Z,1051.88
2018-08-08T10:11:02.193Z,1108.13
2018-08-08T10:12:02.383Z,1141.88
2018-08-08T10:13:02.619Z,1153.13
2018-08-08T10:14:02.800Z,1153.13
2018-08-08T10:15:02.981Z,1153.13
2018-08-08T10:16:03.181Z,1113.75
2018-08-08T10:17:03.363Z,1125.00
2018-08-08T10:18:03.557Z,1147.50
2018-08-08T10:19:03.780Z,1091.25
2018-08-08T10:20:03.986Z,1203.75
2018-08-08T10:21:04.180Z,1209.38
2018-08-08T10:22:04.377Z,354.38
2018-08-08T10:23:04.562Z,1186.88
2018-08-08T10:24:04.751Z,1186.88
2018-08-08T10:25:04.952Z,1181.25
2018-08-08T10:26:05.143Z,1203.75
2018-08-08T10:27:05.335Z,810.00
2018-08-08T10:28:05.517Z,1198.13
2018-08-08T10:29:05.704Z,1254.38
2018-08-08T10:30:05.894Z,821.25
2018-08-08T10:31:06.079Z,961.88
2018-08-08T10:32:06.281Z,866.25
2018-08-08T10:33:06.464Z,1147.50
2018-08-08T10:34:06.651Z,1119.38
2018-08-08T10:35:06.844Z,1040.63
2018-08-08T10:36:07.042Z,1119.38
2018-08-08T10:37:07.338Z,1108.13
2018-08-08T10:38:07.406Z,1136.25
2018-08-08T10:39:07.609Z,838.13
2018-08-08T10:40:07.798Z,292.50
2018-08-08T10:41:08.043Z,258.75
2018-08-08T10:42:08.226Z,253.13
2018-08-08T10:43:08.695Z,838.13
2018-08-08T10:44:08.771Z,1080.00
2018-08-08T10:45:09.212Z,1091.25
2018-08-08T10:46:09.232Z,1085.63
2018-08-08T10:47:09.483Z,1091.25
2018-08-08T10:48:09.524Z,1119.38
2018-08-08T10:49:09.863Z,1158.75
2018-08-08T10:50:11.109Z,1215.00
2018-08-08T10:51:10.322Z,1248.75
2018-08-08T10:52:10.319Z,337.50
2018-08-08T10:53:10.492Z,1063.13
2018-08-08T10:54:10.674Z,292.50
2018-08-08T10:55:11.094Z,1130.63
2018-08-08T10:56:11.076Z,1102.50
2018-08-08T10:57:11.524Z,1096.88
2018-08-08T10:58:11.568Z,1085.63
2018-08-08T10:59:12.014Z,1063.13
2018-08-08T11:00:12.903Z,1018.13
2018-08-08T11:01:12.152Z,1018.13
2018-08-08T11:02:12.018Z,1001.25
2018-08-08T11:03:12.434Z,978.75
2018-08-08T11:04:12.816Z,984.38
2018-08-08T11:05:13.573Z,973.13
2018-08-08T11:06:13.061Z,1006.88
2018-08-08T11:07:13.141Z,1023.75
2018-08-08T11:08:13.428Z,1040.63
2018-08-08T11:09:13.749Z,1051.88
2018-08-08T11:10:14.109Z,1091.25
2018-08-08T11:11:13.971Z,1108.13
2018-08-08T11:12:14.267Z,1130.63
2018-08-08T11:13:14.544Z,1153.13
2018-08-08T11:14:14.255Z,1164.38
2018-08-08T11:15:14.465Z,1198.13
2018-08-08T11:16:15.053Z,264.38
2018-08-08T11:17:15.384Z,343.13
2018-08-08T11:18:15.874Z,1237.50
2018-08-08T11:19:15.165Z,1023.75
2018-08-08T11:20:15.590Z,264.38
2018-08-08T11:21:15.559Z,1265.63
2018-08-08T11:22:15.853Z,1282.50
2018-08-08T11:23:16.070Z,1305.00
2018-08-08T11:24:16.148Z,1288.13
2018-08-08T11:25:16.406Z,1293.75
2018-08-08T11:26:16.674Z,1243.13
2018-08-08T11:27:16.794Z,1215.00
2018-08-08T11:28:16.975Z,1226.25
2018-08-08T11:29:17.156Z,1203.75
2018-08-08T11:30:17.363Z,1164.38
2018-08-08T11:31:17.538Z,1119.38
2018-08-08T11:32:17.738Z,1085.63
2018-08-08T11:33:18.123Z,1057.50
2018-08-08T11:34:18.068Z,1018.13
2018-08-08T11:35:18.277Z,984.38
2018-08-08T11:36:18.468Z,961.88
2018-08-08T11:37:18.652Z,961.88
2018-08-08T11:38:18.920Z,950.63
2018-08-08T11:39:19.046Z,928.13
2018-08-08T11:40:19.248Z,911.25
2018-08-08T11:41:19.446Z,883.13
2018-08-08T11:42:19.637Z,877.50
2018-08-08T11:43:19.840Z,877.50
2018-08-08T11:44:20.035Z,871.88
2018-08-08T11:45:20.271Z,500.63
2018-08-08T11:46:20.674Z,883.13
2018-08-08T11:47:21.657Z,871.88
2018-08-08T11:48:21.021Z,663.75
2018-08-08T11:49:24.575Z,360.00
2018-08-08T11:50:21.117Z,281.25
2018-08-08T11:51:23.032Z,326.25
2018-08-08T11:52:22.705Z,624.38
2018-08-08T11:53:22.555Z,365.63
2018-08-08T11:54:23.617Z,450.00
2018-08-08T11:55:21.934Z,421.88
2018-08-08T11:56:22.124Z,410.63
2018-08-08T11:57:22.309Z,236.25
2018-08-08T11:58:22.504Z,258.75
2018-08-08T11:59:22.971Z,292.50
2018-08-08T12:00:22.921Z,275.63
2018-08-08T12:01:23.177Z,298.13
2018-08-08T12:02:23.715Z,309.38
2018-08-08T12:03:23.849Z,303.75
2018-08-08T12:04:23.516Z,247.50
2018-08-08T12:05:23.752Z,247.50
2018-08-08T12:06:24.005Z,258.75
2018-08-08T12:07:24.070Z,225.00
2018-08-08T12:08:24.283Z,202.50
2018-08-08T12:09:24.464Z,202.50
2018-08-08T12:10:24.651Z,264.38
2018-08-08T12:11:24.846Z,258.75
2018-08-08T12:12:25.041Z,247.50
2018-08-08T12:13:25.283Z,253.13
2018-08-08T12:14:25.363Z,253.13
2018-08-08T12:15:25.550Z,213.75
2018-08-08T12:16:25.739Z,225.00
2018-08-08T12:17:25.932Z,241.88
2018-08-08T12:18:26.118Z,230.63
2018-08-08T12:19:26.313Z,230.63
2018-08-08T12:20:26.511Z,225.00
2018-08-08T12:21:26.686Z,213.75
2018-08-08T12:22:26.882Z,219.38
2018-08-08T12:23:27.078Z,219.38
2018-08-08T12:24:27.264Z,230.63
2018-08-08T12:25:27.480Z,230.63
2018-08-08T12:26:27.637Z,230.63
2018-08-08T12:27:27.822Z,225.00
2018-08-08T12:28:28.008Z,208.13
2018-08-08T12:29:28.392Z,225.00
2018-08-08T12:30:28.400Z,196.88
2018-08-08T12:31:28.639Z,213.75
2018-08-08T12:32:28.775Z,185.63
2018-08-08T12:33:29.004Z,163.13
2018-08-08T12:34:29.197Z,168.75
2018-08-08T12:35:29.508Z,185.63
2018-08-08T12:36:29.572Z,202.50
2018-08-08T12:37:29.787Z,202.50
2018-08-08T12:38:29.968Z,202.50
2018-08-08T12:39:30.166Z,174.38
2018-08-08T12:40:30.351Z,174.38
2018-08-08T12:41:30.542Z,180.00
2018-08-08T12:42:30.720Z,219.38
2018-08-08T12:43:30.914Z,225.00
2018-08-08T12:44:31.104Z,202.50